sensor_id;sensor_type;location;lat;lon;timestamp;pressure;altitude;pressure_sealevel;temperature;humidity
11487;BME280;10510;47.942;9.442;2024-03-22T00:01:58;95322.72;;;5.39;100.00
11487;BME280;10510;47.942;9.442;2024-03-22T00:03:58;95314.41;;;5.36;100.00
11487;BME280;10510;47.942;9.442;2024-03-22T00:05:58;95320.13;;;5.30;100.00
11487;BME280;10510;47.942;9.442;2024-03-22T00:07:59;95317.94;;;5.25;100.00
11487;BME280;10510;47.942;9.442;2024-03-22T00:09:59;95321.88;;;5.19;100.00
11487;BME280;10510;47.942;9.442;2024-03-22T00:11:59;95318.47;;;5.19;100.00
11487;BME280;10510;47.942;9.442;2024-03-22T00:14:00;95316.94;;;5.16;100.00
11487;BME280;10510;47.942;9.442;2024-03-22T00:16:04;95322.13;;;5.16;100.00
11487;BME280;10510;47.942;9.442;2024-03-22T00:18:04;95318.03;;;5.14;100.00
11487;BME280;10510;47.942;9.442;2024-03-22T00:20:05;95315.03;;;5.09;100.00
11487;BME280;10510;47.942;9.442;2024-03-22T00:22:06;95311.88;;;5.05;100.00
11487;BME280;10510;47.942;9.442;2024-03-22T00:24:06;95316.50;;;5.01;100.00
11487;BME280;10510;47.942;9.442;2024-03-22T00:26:07;95312.81;;;4.94;100.00
11487;BME280;10510;47.942;9.442;2024-03-22T00:28:07;95313.59;;;4.85;100.00
11487;BME280;10510;47.942;9.442;2024-03-22T00:30:08;95314.38;;;4.76;100.00
11487;BME280;10510;47.942;9.442;2024-03-22T00:32:09;95319.16;;;4.71;100.00
11487;BME280;10510;47.942;9.442;2024-03-22T00:34:09;95305.06;;;4.64;100.00
11487;BME280;10510;47.942;9.442;2024-03-22T00:36:09;95300.69;;;4.54;100.00
11487;BME280;10510;47.942;9.442;2024-03-22T00:38:10;95306.38;;;4.48;100.00
11487;BME280;10510;47.942;9.442;2024-03-22T00:40:10;95308.41;;;4.45;100.00
11487;BME280;10510;47.942;9.442;2024-03-22T00:42:11;95305.94;;;4.43;100.00
11487;BME280;10510;47.942;9.442;2024-03-22T00:44:11;95293.97;;;4.42;100.00
11487;BME280;10510;47.942;9.442;2024-03-22T00:46:11;95297.88;;;4.37;100.00
11487;BME280;10510;47.942;9.442;2024-03-22T00:48:12;95289.13;;;4.28;100.00
11487;BME280;10510;47.942;9.442;2024-03-22T00:50:12;95291.97;;;4.25;100.00
11487;BME280;10510;47.942;9.442;2024-03-22T00:52:12;95287.75;;;4.24;100.00
11487;BME280;10510;47.942;9.442;2024-03-22T00:54:13;95288.41;;;4.26;100.00
11487;BME280;10510;47.942;9.442;2024-03-22T00:56:13;95280.66;;;4.26;100.00
11487;BME280;10510;47.942;9.442;2024-03-22T00:58:13;95279.72;;;4.27;100.00
11487;BME280;10510;47.942;9.442;2024-03-22T01:00:14;95283.25;;;4.26;100.00
11487;BME280;10510;47.942;9.442;2024-03-22T01:02:15;95284.31;;;4.23;100.00
11487;BME280;10510;47.942;9.442;2024-03-22T01:04:15;95272.50;;;4.21;100.00
11487;BME280;10510;47.942;9.442;2024-03-22T01:06:16;95270.16;;;4.18;100.00
11487;BME280;10510;47.942;9.442;2024-03-22T01:08:17;95273.81;;;4.15;100.00
11487;BME280;10510;47.942;9.442;2024-03-22T01:10:17;95266.56;;;4.09;100.00
11487;BME280;10510;47.942;9.442;2024-03-22T01:12:18;95268.56;;;4.05;100.00
11487;BME280;10510;47.942;9.442;2024-03-22T01:14:19;95258.47;;;4.02;100.00
11487;BME280;10510;47.942;9.442;2024-03-22T01:16:19;95260.50;;;3.99;100.00
11487;BME280;10510;47.942;9.442;2024-03-22T01:18:19;95254.78;;;3.95;100.00
11487;BME280;10510;47.942;9.442;2024-03-22T01:20:20;95255.59;;;3.96;100.00
11487;BME280;10510;47.942;9.442;2024-03-22T01:22:20;95255.47;;;3.97;100.00
11487;BME280;10510;47.942;9.442;2024-03-22T01:24:20;95256.97;;;4.00;100.00
11487;BME280;10510;47.942;9.442;2024-03-22T01:26:20;95254.97;;;4.03;100.00
11487;BME280;10510;47.942;9.442;2024-03-22T01:28:21;95260.81;;;4.05;100.00
11487;BME280;10510;47.942;9.442;2024-03-22T01:30:21;95256.34;;;4.07;100.00
11487;BME280;10510;47.942;9.442;2024-03-22T01:32:22;95254.72;;;4.06;100.00
11487;BME280;10510;47.942;9.442;2024-03-22T01:34:22;95253.91;;;4.06;100.00
11487;BME280;10510;47.942;9.442;2024-03-22T01:36:22;95248.72;;;4.06;100.00
11487;BME280;10510;47.942;9.442;2024-03-22T01:38:23;95246.25;;;4.04;100.00
11487;BME280;10510;47.942;9.442;2024-03-22T01:40:23;95257.66;;;4.02;100.00
11487;BME280;10510;47.942;9.442;2024-03-22T01:42:23;95249.47;;;3.97;100.00
11487;BME280;10510;47.942;9.442;2024-03-22T01:44:28;95254.22;;;3.92;100.00
11487;BME280;10510;47.942;9.442;2024-03-22T01:46:28;95255.41;;;3.87;100.00
11487;BME280;10510;47.942;9.442;2024-03-22T01:48:28;95246.53;;;3.80;100.00
11487;BME280;10510;47.942;9.442;2024-03-22T01:50:29;95241.41;;;3.69;100.00
11487;BME280;10510;47.942;9.442;2024-03-22T01:52:29;95244.75;;;3.60;100.00
11487;BME280;10510;47.942;9.442;2024-03-22T01:54:30;95231.53;;;3.53;100.00
11487;BME280;10510;47.942;9.442;2024-03-22T01:56:30;95238.84;;;3.48;100.00
11487;BME280;10510;47.942;9.442;2024-03-22T01:58:30;95229.81;;;3.42;100.00
11487;BME280;10510;47.942;9.442;2024-03-22T02:00:31;95227.47;;;3.39;100.00
11487;BME280;10510;47.942;9.442;2024-03-22T02:02:31;95231.38;;;3.34;100.00
11487;BME280;10510;47.942;9.442;2024-03-22T02:04:32;95236.09;;;3.29;100.00
11487;BME280;10510;47.942;9.442;2024-03-22T02:06:32;95228.84;;;3.23;100.00
11487;BME280;10510;47.942;9.442;2024-03-22T02:08:32;95224.72;;;3.20;100.00
11487;BME280;10510;47.942;9.442;2024-03-22T02:10:33;95231.22;;;3.14;100.00
11487;BME280;10510;47.942;9.442;2024-03-22T02:12:34;95227.34;;;3.09;100.00
11487;BME280;10510;47.942;9.442;2024-03-22T02:14:34;95225.16;;;3.04;100.00
11487;BME280;10510;47.942;9.442;2024-03-22T02:16:34;95221.88;;;3.02;100.00
11487;BME280;10510;47.942;9.442;2024-03-22T02:18:35;95216.03;;;3.00;100.00
11487;BME280;10510;47.942;9.442;2024-03-22T02:20:35;95219.44;;;3.01;100.00
11487;BME280;10510;47.942;9.442;2024-03-22T02:22:35;95219.28;;;3.02;100.00
11487;BME280;10510;47.942;9.442;2024-03-22T02:24:36;95208.97;;;3.02;100.00
11487;BME280;10510;47.942;9.442;2024-03-22T02:26:36;95206.38;;;3.02;100.00
11487;BME280;10510;47.942;9.442;2024-03-22T02:28:36;95200.53;;;3.00;100.00
11487;BME280;10510;47.942;9.442;2024-03-22T02:30:36;95209.34;;;2.98;100.00
11487;BME280;10510;47.942;9.442;2024-03-22T02:32:37;95202.91;;;2.92;100.00
11487;BME280;10510;47.942;9.442;2024-03-22T02:34:39;95197.28;;;2.87;100.00
11487;BME280;10510;47.942;9.442;2024-03-22T02:36:39;95197.38;;;2.85;100.00
11487;BME280;10510;47.942;9.442;2024-03-22T02:38:40;95198.34;;;2.84;100.00
11487;BME280;10510;47.942;9.442;2024-03-22T02:40:40;95207.84;;;2.84;100.00
11487;BME280;10510;47.942;9.442;2024-03-22T02:42:40;95188.97;;;2.83;100.00
11487;BME280;10510;47.942;9.442;2024-03-22T02:44:40;95191.41;;;2.85;100.00
11487;BME280;10510;47.942;9.442;2024-03-22T02:46:43;95186.13;;;2.86;100.00
11487;BME280;10510;47.942;9.442;2024-03-22T02:48:43;95184.38;;;2.87;100.00
11487;BME280;10510;47.942;9.442;2024-03-22T02:50:43;95171.47;;;2.87;100.00
11487;BME280;10510;47.942;9.442;2024-03-22T02:52:43;95176.63;;;2.87;100.00
11487;BME280;10510;47.942;9.442;2024-03-22T02:54:44;95169.84;;;2.86;100.00
11487;BME280;10510;47.942;9.442;2024-03-22T02:56:44;95166.41;;;2.85;100.00
11487;BME280;10510;47.942;9.442;2024-03-22T02:58:44;95171.47;;;2.87;100.00
11487;BME280;10510;47.942;9.442;2024-03-22T03:00:44;95175.44;;;2.91;100.00
11487;BME280;10510;47.942;9.442;2024-03-22T03:02:48;95179.41;;;2.95;100.00
11487;BME280;10510;47.942;9.442;2024-03-22T03:04:48;95169.66;;;2.99;100.00
11487;BME280;10510;47.942;9.442;2024-03-22T03:06:49;95176.09;;;3.04;100.00
11487;BME280;10510;47.942;9.442;2024-03-22T03:08:49;95163.63;;;3.09;100.00
11487;BME280;10510;47.942;9.442;2024-03-22T03:10:49;95165.97;;;3.12;100.00
11487;BME280;10510;47.942;9.442;2024-03-22T03:12:50;95167.59;;;3.13;100.00
11487;BME280;10510;47.942;9.442;2024-03-22T03:14:50;95162.56;;;3.12;100.00
11487;BME280;10510;47.942;9.442;2024-03-22T03:16:50;95166.06;;;3.11;100.00
11487;BME280;10510;47.942;9.442;2024-03-22T03:18:50;95161.88;;;3.10;100.00
11487;BME280;10510;47.942;9.442;2024-03-22T03:20:51;95162.69;;;3.10;100.00
11487;BME280;10510;47.942;9.442;2024-03-22T03:22:51;95158.56;;;3.08;100.00
11487;BME280;10510;47.942;9.442;2024-03-22T03:24:51;95155.28;;;3.06;100.00
11487;BME280;10510;47.942;9.442;2024-03-22T03:26:52;95154.97;;;2.99;100.00
11487;BME280;10510;47.942;9.442;2024-03-22T03:28:52;95157.00;;;2.95;100.00
11487;BME280;10510;47.942;9.442;2024-03-22T03:30:52;95153.13;;;2.90;100.00
11487;BME280;10510;47.942;9.442;2024-03-22T03:32:53;95151.50;;;2.89;100.00
11487;BME280;10510;47.942;9.442;2024-03-22T03:34:53;95154.34;;;2.86;100.00
11487;BME280;10510;47.942;9.442;2024-03-22T03:36:54;95145.88;;;2.84;100.00
11487;BME280;10510;47.942;9.442;2024-03-22T03:38:54;95152.00;;;2.83;100.00
11487;BME280;10510;47.942;9.442;2024-03-22T03:40:54;95147.75;;;2.82;100.00
11487;BME280;10510;47.942;9.442;2024-03-22T03:42:54;95143.16;;;2.85;100.00
11487;BME280;10510;47.942;9.442;2024-03-22T03:44:55;95141.84;;;2.91;100.00
11487;BME280;10510;47.942;9.442;2024-03-22T03:46:55;95146.78;;;2.94;100.00
11487;BME280;10510;47.942;9.442;2024-03-22T03:48:55;95144.78;;;2.98;100.00
11487;BME280;10510;47.942;9.442;2024-03-22T03:50:56;95145.59;;;2.98;100.00
11487;BME280;10510;47.942;9.442;2024-03-22T03:52:59;95145.72;;;2.96;100.00
11487;BME280;10510;47.942;9.442;2024-03-22T03:54:59;95137.84;;;2.98;100.00
11487;BME280;10510;47.942;9.442;2024-03-22T03:56:59;95142.19;;;2.98;100.00
11487;BME280;10510;47.942;9.442;2024-03-22T03:59:00;95139.47;;;2.99;100.00
11487;BME280;10510;47.942;9.442;2024-03-22T04:01:07;95135.84;;;3.02;100.00
11487;BME280;10510;47.942;9.442;2024-03-22T04:03:08;95134.06;;;3.02;100.00
11487;BME280;10510;47.942;9.442;2024-03-22T04:05:08;95128.09;;;3.02;100.00
11487;BME280;10510;47.942;9.442;2024-03-22T04:07:08;95133.81;;;3.05;100.00
11487;BME280;10510;47.942;9.442;2024-03-22T04:09:09;95137.91;;;3.08;100.00
11487;BME280;10510;47.942;9.442;2024-03-22T04:11:10;95130.97;;;3.08;100.00
11487;BME280;10510;47.942;9.442;2024-03-22T04:13:11;95119.59;;;3.11;100.00
11487;BME280;10510;47.942;9.442;2024-03-22T04:15:11;95122.16;;;3.11;100.00
11487;BME280;10510;47.942;9.442;2024-03-22T04:17:12;95121.78;;;3.15;100.00
11487;BME280;10510;47.942;9.442;2024-03-22T04:19:12;95118.50;;;3.13;100.00
11487;BME280;10510;47.942;9.442;2024-03-22T04:21:12;95114.31;;;3.12;100.00
11487;BME280;10510;47.942;9.442;2024-03-22T04:23:13;95112.78;;;3.10;100.00
11487;BME280;10510;47.942;9.442;2024-03-22T04:25:13;95118.06;;;3.08;100.00
11487;BME280;10510;47.942;9.442;2024-03-22T04:27:13;95109.41;;;3.09;100.00
11487;BME280;10510;47.942;9.442;2024-03-22T04:29:14;95102.31;;;3.11;100.00
11487;BME280;10510;47.942;9.442;2024-03-22T04:31:14;95108.88;;;3.15;100.00
11487;BME280;10510;47.942;9.442;2024-03-22T04:33:15;95111.88;;;3.21;100.00
11487;BME280;10510;47.942;9.442;2024-03-22T04:35:16;95108.13;;;3.25;100.00
11487;BME280;10510;47.942;9.442;2024-03-22T04:37:16;95111.16;;;3.30;100.00
11487;BME280;10510;47.942;9.442;2024-03-22T04:39:16;95109.22;;;3.32;100.00
11487;BME280;10510;47.942;9.442;2024-03-22T04:41:16;95115.81;;;3.36;100.00
11487;BME280;10510;47.942;9.442;2024-03-22T04:43:17;95104.41;;;3.38;100.00
11487;BME280;10510;47.942;9.442;2024-03-22T04:45:17;95102.47;;;3.40;100.00
11487;BME280;10510;47.942;9.442;2024-03-22T04:47:18;95101.16;;;3.46;100.00
11487;BME280;10510;47.942;9.442;2024-03-22T04:49:18;95107.84;;;3.49;100.00
11487;BME280;10510;47.942;9.442;2024-03-22T04:51:18;95101.59;;;3.51;100.00
11487;BME280;10510;47.942;9.442;2024-03-22T04:53:21;95106.63;;;3.53;100.00
11487;BME280;10510;47.942;9.442;2024-03-22T04:55:22;95102.03;;;3.56;100.00
11487;BME280;10510;47.942;9.442;2024-03-22T04:57:22;95094.03;;;3.59;100.00
11487;BME280;10510;47.942;9.442;2024-03-22T04:59:22;95098.94;;;3.62;100.00
11487;BME280;10510;47.942;9.442;2024-03-22T05:01:23;95098.66;;;3.66;100.00
11487;BME280;10510;47.942;9.442;2024-03-22T05:03:23;95098.16;;;3.72;100.00
11487;BME280;10510;47.942;9.442;2024-03-22T05:05:24;95097.88;;;3.75;100.00
11487;BME280;10510;47.942;9.442;2024-03-22T05:07:24;95102.81;;;3.78;100.00
11487;BME280;10510;47.942;9.442;2024-03-22T05:09:25;95103.63;;;3.78;100.00
11487;BME280;10510;47.942;9.442;2024-03-22T05:11:25;95105.50;;;3.76;100.00
11487;BME280;10510;47.942;9.442;2024-03-22T05:13:25;95098.84;;;3.74;100.00
11487;BME280;10510;47.942;9.442;2024-03-22T05:15:26;95099.78;;;3.73;100.00
11487;BME280;10510;47.942;9.442;2024-03-22T05:17:26;95105.09;;;3.71;100.00
11487;BME280;10510;47.942;9.442;2024-03-22T05:19:27;95106.72;;;3.72;100.00
11487;BME280;10510;47.942;9.442;2024-03-22T05:21:27;95107.53;;;3.73;100.00
11487;BME280;10510;47.942;9.442;2024-03-22T05:23:27;95105.09;;;3.71;100.00
11487;BME280;10510;47.942;9.442;2024-03-22T05:25:27;95104.78;;;3.64;100.00
11487;BME280;10510;47.942;9.442;2024-03-22T05:27:28;95103.56;;;3.59;100.00
11487;BME280;10510;47.942;9.442;2024-03-22T05:29:28;95109.09;;;3.54;100.00
11487;BME280;10510;47.942;9.442;2024-03-22T05:31:28;95109.22;;;3.53;100.00
11487;BME280;10510;47.942;9.442;2024-03-22T05:33:29;95109.09;;;3.54;100.00
11487;BME280;10510;47.942;9.442;2024-03-22T05:35:29;95108.28;;;3.54;100.00
11487;BME280;10510;47.942;9.442;2024-03-22T05:37:29;95100.63;;;3.52;100.00
11487;BME280;10510;47.942;9.442;2024-03-22T05:39:30;95107.72;;;3.50;100.00
11487;BME280;10510;47.942;9.442;2024-03-22T05:41:30;95105.78;;;3.42;100.00
11487;BME280;10510;47.942;9.442;2024-03-22T05:43:31;95100.16;;;3.37;100.00
11487;BME280;10510;47.942;9.442;2024-03-22T05:45:31;95107.91;;;3.37;100.00
11487;BME280;10510;47.942;9.442;2024-03-22T05:47:31;95101.56;;;3.41;100.00
11487;BME280;10510;47.942;9.442;2024-03-22T05:49:32;95103.63;;;3.48;100.00
11487;BME280;10510;47.942;9.442;2024-03-22T05:51:32;95105.00;;;3.52;100.00
11487;BME280;10510;47.942;9.442;2024-03-22T05:53:32;95100.63;;;3.52;100.00
11487;BME280;10510;47.942;9.442;2024-03-22T05:55:33;95104.03;;;3.53;100.00
11487;BME280;10510;47.942;9.442;2024-03-22T05:57:33;95100.63;;;3.52;100.00
11487;BME280;10510;47.942;9.442;2024-03-22T05:59:33;95106.25;;;3.57;100.00
11487;BME280;10510;47.942;9.442;2024-03-22T06:01:34;95106.44;;;3.66;100.00
11487;BME280;10510;47.942;9.442;2024-03-22T06:03:34;95104.94;;;3.73;100.00
11487;BME280;10510;47.942;9.442;2024-03-22T06:05:34;95114.50;;;3.82;100.00
11487;BME280;10510;47.942;9.442;2024-03-22T06:07:34;95107.88;;;3.89;100.00
11487;BME280;10510;47.942;9.442;2024-03-22T06:09:41;95105.31;;;3.99;100.00
11487;BME280;10510;47.942;9.442;2024-03-22T06:11:49;95098.28;;;4.10;100.00
11487;BME280;10510;47.942;9.442;2024-03-22T06:13:50;95101.72;;;4.21;100.00
11487;BME280;10510;47.942;9.442;2024-03-22T06:15:51;95100.75;;;4.31;100.00
11487;BME280;10510;47.942;9.442;2024-03-22T06:17:51;95091.91;;;4.44;100.00
11487;BME280;10510;47.942;9.442;2024-03-22T06:19:53;95091.69;;;4.57;100.00
11487;BME280;10510;47.942;9.442;2024-03-22T06:21:53;95087.72;;;4.72;100.00
11487;BME280;10510;47.942;9.442;2024-03-22T06:23:53;95088.94;;;4.87;100.00
11487;BME280;10510;47.942;9.442;2024-03-22T06:25:55;95096.44;;;5.00;100.00
11487;BME280;10510;47.942;9.442;2024-03-22T06:27:55;95083.19;;;5.13;100.00
11487;BME280;10510;47.942;9.442;2024-03-22T06:29:56;95092.16;;;5.28;100.00
11487;BME280;10510;47.942;9.442;2024-03-22T06:31:56;95078.06;;;5.40;100.00
11487;BME280;10510;47.942;9.442;2024-03-22T06:33:57;95076.81;;;5.54;100.00
11487;BME280;10510;47.942;9.442;2024-03-22T06:36:02;95084.66;;;5.72;100.00
11487;BME280;10510;47.942;9.442;2024-03-22T06:38:03;95074.50;;;5.88;100.00
11487;BME280;10510;47.942;9.442;2024-03-22T06:40:05;95082.38;;;6.06;100.00
11487;BME280;10510;47.942;9.442;2024-03-22T06:42:06;95077.88;;;6.26;100.00
11487;BME280;10510;47.942;9.442;2024-03-22T06:44:06;95076.66;;;6.48;100.00
11487;BME280;10510;47.942;9.442;2024-03-22T06:46:08;95076.88;;;6.73;100.00
11487;BME280;10510;47.942;9.442;2024-03-22T06:48:08;95072.19;;;6.94;100.00
11487;BME280;10510;47.942;9.442;2024-03-22T06:50:09;95068.28;;;7.16;100.00
11487;BME280;10510;47.942;9.442;2024-03-22T06:52:09;95064.53;;;7.37;100.00
11487;BME280;10510;47.942;9.442;2024-03-22T06:54:10;95065.94;;;7.57;100.00
11487;BME280;10510;47.942;9.442;2024-03-22T06:56:10;95064.13;;;7.84;100.00
11487;BME280;10510;47.942;9.442;2024-03-22T06:58:11;95061.47;;;8.10;100.00
11487;BME280;10510;47.942;9.442;2024-03-22T07:00:12;95060.41;;;8.37;100.00
11487;BME280;10510;47.942;9.442;2024-03-22T07:02:13;95051.38;;;8.66;100.00
11487;BME280;10510;47.942;9.442;2024-03-22T07:04:14;95057.59;;;8.89;100.00
11487;BME280;10510;47.942;9.442;2024-03-22T07:06:15;95055.13;;;9.12;100.00
11487;BME280;10510;47.942;9.442;2024-03-22T07:08:15;95060.00;;;9.31;100.00
11487;BME280;10510;47.942;9.442;2024-03-22T07:10:15;95048.22;;;9.60;100.00
11487;BME280;10510;47.942;9.442;2024-03-22T07:12:16;95048.22;;;10.47;100.00
11487;BME280;10510;47.942;9.442;2024-03-22T07:14:16;95045.31;;;11.26;100.00
11487;BME280;10510;47.942;9.442;2024-03-22T07:16:18;95045.38;;;11.70;100.00
11487;BME280;10510;47.942;9.442;2024-03-22T07:18:18;95040.19;;;12.51;100.00
11487;BME280;10510;47.942;9.442;2024-03-22T07:20:19;95030.72;;;13.43;100.00
11487;BME280;10510;47.942;9.442;2024-03-22T07:22:20;95029.72;;;14.13;100.00
11487;BME280;10510;47.942;9.442;2024-03-22T07:24:20;95030.75;;;13.77;100.00
11487;BME280;10510;47.942;9.442;2024-03-22T07:26:24;95031.53;;;14.61;100.00
11487;BME280;10510;47.942;9.442;2024-03-22T07:28:24;95027.78;;;15.70;100.00
11487;BME280;10510;47.942;9.442;2024-03-22T07:30:24;95028.03;;;16.26;100.00
11487;BME280;10510;47.942;9.442;2024-03-22T07:32:25;95031.03;;;16.82;100.00
11487;BME280;10510;47.942;9.442;2024-03-22T07:34:25;95042.63;;;17.37;100.00
11487;BME280;10510;47.942;9.442;2024-03-22T07:36:25;95034.13;;;17.35;100.00
11487;BME280;10510;47.942;9.442;2024-03-22T07:38:26;95040.34;;;17.47;100.00
11487;BME280;10510;47.942;9.442;2024-03-22T07:40:27;95030.16;;;17.69;100.00
11487;BME280;10510;47.942;9.442;2024-03-22T07:42:27;95021.84;;;17.91;100.00
11487;BME280;10510;47.942;9.442;2024-03-22T07:44:27;95036.53;;;17.87;100.00
11487;BME280;10510;47.942;9.442;2024-03-22T07:46:28;95026.34;;;17.90;100.00
11487;BME280;10510;47.942;9.442;2024-03-22T07:48:29;95029.38;;;17.69;100.00
11487;BME280;10510;47.942;9.442;2024-03-22T07:50:29;95033.78;;;18.19;100.00
11487;BME280;10510;47.942;9.442;2024-03-22T07:52:30;95033.22;;;19.61;100.00
11487;BME280;10510;47.942;9.442;2024-03-22T07:54:30;95029.91;;;20.93;100.00
11487;BME280;10510;47.942;9.442;2024-03-22T07:56:30;95035.22;;;21.89;100.00
11487;BME280;10510;47.942;9.442;2024-03-22T07:58:31;95029.44;;;22.97;100.00
11487;BME280;10510;47.942;9.442;2024-03-22T08:00:31;95028.53;;;23.46;100.00
11487;BME280;10510;47.942;9.442;2024-03-22T08:02:31;95031.25;;;23.88;100.00
11487;BME280;10510;47.942;9.442;2024-03-22T08:04:32;95023.22;;;24.31;100.00
11487;BME280;10510;47.942;9.442;2024-03-22T08:06:32;95018.13;;;24.92;100.00
11487;BME280;10510;47.942;9.442;2024-03-22T08:08:32;95020.59;;;25.14;100.00
11487;BME280;10510;47.942;9.442;2024-03-22T08:10:33;95017.13;;;25.13;100.00
11487;BME280;10510;47.942;9.442;2024-03-22T08:12:33;95010.47;;;25.52;100.00
11487;BME280;10510;47.942;9.442;2024-03-22T08:14:33;95008.84;;;25.61;100.00
11487;BME280;10510;47.942;9.442;2024-03-22T08:16:34;95005.09;;;25.67;100.00
11487;BME280;10510;47.942;9.442;2024-03-22T08:18:34;95001.38;;;25.48;100.00
11487;BME280;10510;47.942;9.442;2024-03-22T08:20:35;95001.38;;;25.48;100.00
11487;BME280;10510;47.942;9.442;2024-03-22T08:22:37;94992.28;;;25.59;100.00
11487;BME280;10510;47.942;9.442;2024-03-22T08:24:37;94994.94;;;25.85;100.00
11487;BME280;10510;47.942;9.442;2024-03-22T08:26:38;94993.84;;;26.01;100.00
11487;BME280;10510;47.942;9.442;2024-03-22T08:28:38;94986.25;;;26.39;100.00
11487;BME280;10510;47.942;9.442;2024-03-22T08:30:38;94985.81;;;26.76;100.00
11487;BME280;10510;47.942;9.442;2024-03-22T08:32:39;94985.09;;;26.60;100.00
11487;BME280;10510;47.942;9.442;2024-03-22T08:34:39;94987.81;;;26.45;100.00
11487;BME280;10510;47.942;9.442;2024-03-22T08:36:40;94983.97;;;25.86;100.00
11487;BME280;10510;47.942;9.442;2024-03-22T08:38:40;94988.53;;;25.60;100.00
11487;BME280;10510;47.942;9.442;2024-03-22T08:40:40;94982.38;;;25.59;100.00
11487;BME280;10510;47.942;9.442;2024-03-22T08:42:41;94974.63;;;25.58;100.00
11487;BME280;10510;47.942;9.442;2024-03-22T08:44:42;94982.91;;;25.87;100.00
11487;BME280;10510;47.942;9.442;2024-03-22T08:46:42;94968.72;;;25.92;100.00
11487;BME280;10510;47.942;9.442;2024-03-22T08:48:43;94975.06;;;26.16;100.00
11487;BME280;10510;47.942;9.442;2024-03-22T08:50:44;94977.44;;;26.28;100.00
11487;BME280;10510;47.942;9.442;2024-03-22T08:52:44;94977.28;;;25.83;100.00
11487;BME280;10510;47.942;9.442;2024-03-22T08:54:45;94974.56;;;25.99;100.00
11487;BME280;10510;47.942;9.442;2024-03-22T08:56:45;94968.69;;;25.81;100.00
11487;BME280;10510;47.942;9.442;2024-03-22T08:58:45;94969.81;;;25.50;100.00
11487;BME280;10510;47.942;9.442;2024-03-22T09:00:46;94961.22;;;25.53;100.00
11487;BME280;10510;47.942;9.442;2024-03-22T09:02:46;94956.97;;;25.47;100.00
11487;BME280;10510;47.942;9.442;2024-03-22T09:04:47;94962.84;;;25.13;100.00
11487;BME280;10510;47.942;9.442;2024-03-22T09:06:47;94956.91;;;24.85;100.00
11487;BME280;10510;47.942;9.442;2024-03-22T09:08:48;94957.88;;;23.48;100.00
11487;BME280;10510;47.942;9.442;2024-03-22T09:10:48;94958.22;;;23.25;100.00
11487;BME280;10510;47.942;9.442;2024-03-22T09:12:48;94958.31;;;23.03;100.00
11487;BME280;10510;47.942;9.442;2024-03-22T09:14:48;94955.97;;;23.06;100.00
11487;BME280;10510;47.942;9.442;2024-03-22T09:16:49;94953.88;;;23.13;100.00
11487;BME280;10510;47.942;9.442;2024-03-22T09:18:49;94946.84;;;23.02;100.00
11487;BME280;10510;47.942;9.442;2024-03-22T09:20:49;94941.13;;;22.88;100.00
11487;BME280;10510;47.942;9.442;2024-03-22T09:22:50;94951.22;;;22.86;100.00
11487;BME280;10510;47.942;9.442;2024-03-22T09:24:50;94943.88;;;22.72;100.00
11487;BME280;10510;47.942;9.442;2024-03-22T09:26:50;94944.75;;;22.50;100.00
11487;BME280;10510;47.942;9.442;2024-03-22T09:28:50;94940.50;;;21.88;100.00
11487;BME280;10510;47.942;9.442;2024-03-22T09:30:51;94937.59;;;21.17;100.00
11487;BME280;10510;47.942;9.442;2024-03-22T09:32:51;94934.44;;;21.20;100.00
11487;BME280;10510;47.942;9.442;2024-03-22T09:34:52;94938.47;;;21.06;100.00
11487;BME280;10510;47.942;9.442;2024-03-22T09:36:52;94937.75;;;21.10;100.00
11487;BME280;10510;47.942;9.442;2024-03-22T09:38:52;94929.72;;;20.89;100.00
11487;BME280;10510;47.942;9.442;2024-03-22T09:40:53;94928.66;;;20.90;100.00
11487;BME280;10510;47.942;9.442;2024-03-22T09:43:01;94927.91;;;20.60;100.00
11487;BME280;10510;47.942;9.442;2024-03-22T09:45:03;94937.03;;;20.24;100.00
11487;BME280;10510;47.942;9.442;2024-03-22T09:47:03;94930.06;;;20.06;100.00
11487;BME280;10510;47.942;9.442;2024-03-22T09:49:04;94925.53;;;20.07;100.00
11487;BME280;10510;47.942;9.442;2024-03-22T09:51:05;94926.97;;;19.86;100.00
11487;BME280;10510;47.942;9.442;2024-03-22T09:53:07;94926.97;;;19.86;100.00
11487;BME280;10510;47.942;9.442;2024-03-22T09:55:08;94928.59;;;19.75;100.00
11487;BME280;10510;47.942;9.442;2024-03-22T09:57:18;94920.03;;;19.96;100.00
11487;BME280;10510;47.942;9.442;2024-03-22T09:59:18;94914.47;;;20.10;100.00
11487;BME280;10510;47.942;9.442;2024-03-22T10:01:19;94912.72;;;20.15;100.00
11487;BME280;10510;47.942;9.442;2024-03-22T10:03:19;94904.75;;;20.15;100.00
11487;BME280;10510;47.942;9.442;2024-03-22T10:05:19;94905.25;;;20.29;100.00
11487;BME280;10510;47.942;9.442;2024-03-22T10:07:19;94904.44;;;20.12;100.00
11487;BME280;10510;47.942;9.442;2024-03-22T10:09:28;94889.28;;;20.24;100.00
11487;BME280;10510;47.942;9.442;2024-03-22T10:11:30;94887.94;;;20.38;100.00
11487;BME280;10510;47.942;9.442;2024-03-22T10:13:30;94892.56;;;20.31;100.00
11487;BME280;10510;47.942;9.442;2024-03-22T10:15:30;94888.31;;;20.30;100.00
11487;BME280;10510;47.942;9.442;2024-03-22T10:17:31;94889.34;;;20.58;100.00
11487;BME280;10510;47.942;9.442;2024-03-22T10:19:31;94895.00;;;20.50;100.00
11487;BME280;10510;47.942;9.442;2024-03-22T10:21:31;94892.88;;;20.18;100.00
11487;BME280;10510;47.942;9.442;2024-03-22T10:23:32;94882.09;;;20.25;100.00
11487;BME280;10510;47.942;9.442;2024-03-22T10:25:33;94880.56;;;20.12;100.00
11487;BME280;10510;47.942;9.442;2024-03-22T10:27:33;94883.25;;;20.00;100.00
11487;BME280;10510;47.942;9.442;2024-03-22T10:29:34;94879.16;;;20.38;100.00
11487;BME280;10510;47.942;9.442;2024-03-22T10:31:35;94890.44;;;20.74;100.00
11487;BME280;10510;47.942;9.442;2024-03-22T10:33:36;94875.16;;;20.98;100.00
11487;BME280;10510;47.942;9.442;2024-03-22T10:35:37;94874.41;;;21.19;100.00
11487;BME280;10510;47.942;9.442;2024-03-22T10:37:39;94868.03;;;21.37;100.00